sensor_id;sensor_type;location;lat;lon;timestamp;temperature;humidity
71117;SHT31;58775;46.992;9.518;2024-01-30T00:03:39;1.07;91.40
71117;SHT31;58775;46.992;9.518;2024-01-30T00:20:45;1.04;91.73
71117;SHT31;58775;46.992;9.518;2024-01-30T00:23:10;1.04;91.71
71117;SHT31;58775;46.992;9.518;2024-01-30T00:28:43;1.03;90.66
71117;SHT31;58775;46.992;9.518;2024-01-30T00:30:57;0.78;91.74
71117;SHT31;58775;46.992;9.518;2024-01-30T00:33:11;0.88;92.26
71117;SHT31;58775;46.992;9.518;2024-01-30T00:35:21;0.76;92.35
71117;SHT31;58775;46.992;9.518;2024-01-30T00:37:23;0.78;92.95
71117;SHT31;58775;46.992;9.518;2024-01-30T00:42:45;0.95;92.45
71117;SHT31;58775;46.992;9.518;2024-01-30T01:17:01;0.86;91.90
71117;SHT31;58775;46.992;9.518;2024-01-30T01:19:31;0.86;92.74
71117;SHT31;58775;46.992;9.518;2024-01-30T01:21:45;0.95;92.41
71117;SHT31;58775;46.992;9.518;2024-01-30T01:24:42;0.93;92.70
71117;SHT31;58775;46.992;9.518;2024-01-30T01:27:43;1.00;92.71
71117;SHT31;58775;46.992;9.518;2024-01-30T01:29:57;1.06;92.88
71117;SHT31;58775;46.992;9.518;2024-01-30T01:32:33;1.06;92.40
71117;SHT31;58775;46.992;9.518;2024-01-30T05:52:44;0.21;93.27
71117;SHT31;58775;46.992;9.518;2024-01-30T06:59:30;0.11;93.36
71117;SHT31;58775;46.992;9.518;2024-01-30T10:14:01;13.25;56.87
71117;SHT31;58775;46.992;9.518;2024-01-30T10:16:02;13.94;58.42
71117;SHT31;58775;46.992;9.518;2024-01-30T10:18:04;13.25;53.54
71117;SHT31;58775;46.992;9.518;2024-01-30T10:20:07;13.91;53.75
71117;SHT31;58775;46.992;9.518;2024-01-30T10:22:09;13.82;51.37
71117;SHT31;58775;46.992;9.518;2024-01-30T16:30:30;4.83;86.05
71117;SHT31;58775;46.992;9.518;2024-01-30T16:32:37;4.76;86.25
71117;SHT31;58775;46.992;9.518;2024-01-30T16:38:26;4.73;86.09
71117;SHT31;58775;46.992;9.518;2024-01-30T16:44:25;4.65;86.29
71117;SHT31;58775;46.992;9.518;2024-01-30T18:11:28;4.06;87.71
71117;SHT31;58775;46.992;9.518;2024-01-30T18:13:29;4.07;87.55
71117;SHT31;58775;46.992;9.518;2024-01-30T18:15:30;4.06;87.43
71117;SHT31;58775;46.992;9.518;2024-01-30T18:17:36;4.03;88.06
71117;SHT31;58775;46.992;9.518;2024-01-30T18:22:01;4.03;88.00
71117;SHT31;58775;46.992;9.518;2024-01-30T18:24:02;4.04;88.14
71117;SHT31;58775;46.992;9.518;2024-01-30T18:26:15;3.99;87.91
71117;SHT31;58775;46.992;9.518;2024-01-30T18:28:19;3.87;88.45
71117;SHT31;58775;46.992;9.518;2024-01-30T18:30:20;3.89;88.62
71117;SHT31;58775;46.992;9.518;2024-01-30T18:32:23;3.93;88.06
71117;SHT31;58775;46.992;9.518;2024-01-30T18:34:23;3.94;87.94
71117;SHT31;58775;46.992;9.518;2024-01-30T18:36:24;3.86;87.95
71117;SHT31;58775;46.992;9.518;2024-01-30T18:38:25;3.82;88.04
71117;SHT31;58775;46.992;9.518;2024-01-30T18:40:26;3.83;89.13
71117;SHT31;58775;46.992;9.518;2024-01-30T18:42:27;3.82;89.96
71117;SHT31;58775;46.992;9.518;2024-01-30T18:44:28;3.75;90.03
71117;SHT31;58775;46.992;9.518;2024-01-30T18:46:28;3.72;89.21
71117;SHT31;58775;46.992;9.518;2024-01-30T18:48:29;3.63;88.87
71117;SHT31;58775;46.992;9.518;2024-01-30T18:50:30;3.68;88.33
71117;SHT31;58775;46.992;9.518;2024-01-30T18:52:32;3.63;88.87
71117;SHT31;58775;46.992;9.518;2024-01-30T18:54:32;3.66;88.69
71117;SHT31;58775;46.992;9.518;2024-01-30T18:56:33;3.70;88.76
71117;SHT31;58775;46.992;9.518;2024-01-30T18:58:34;3.72;88.83
71117;SHT31;58775;46.992;9.518;2024-01-30T19:00:35;3.54;89.92
71117;SHT31;58775;46.992;9.518;2024-01-30T19:02:41;3.58;90.19
71117;SHT31;58775;46.992;9.518;2024-01-30T19:04:42;3.62;89.81
71117;SHT31;58775;46.992;9.518;2024-01-30T19:06:43;3.63;89.92
71117;SHT31;58775;46.992;9.518;2024-01-30T19:08:44;3.70;89.73
71117;SHT31;58775;46.992;9.518;2024-01-30T19:10:45;3.69;89.74
71117;SHT31;58775;46.992;9.518;2024-01-30T19:12:46;3.69;89.52
71117;SHT31;58775;46.992;9.518;2024-01-30T19:14:47;3.65;89.69
71117;SHT31;58775;46.992;9.518;2024-01-30T19:16:48;3.69;89.60
71117;SHT31;58775;46.992;9.518;2024-01-30T19:18:49;3.66;89.97
71117;SHT31;58775;46.992;9.518;2024-01-30T19:20:50;3.69;89.80
71117;SHT31;58775;46.992;9.518;2024-01-30T19:22:53;3.66;89.90
71117;SHT31;58775;46.992;9.518;2024-01-30T19:24:54;3.69;89.39
71117;SHT31;58775;46.992;9.518;2024-01-30T19:26:55;3.70;89.39
71117;SHT31;58775;46.992;9.518;2024-01-30T19:28:56;3.66;89.56
71117;SHT31;58775;46.992;9.518;2024-01-30T19:30:58;3.63;90.16
71117;SHT31;58775;46.992;9.518;2024-01-30T19:33:01;3.65;90.09
71117;SHT31;58775;46.992;9.518;2024-01-30T19:35:03;3.63;89.88
71117;SHT31;58775;46.992;9.518;2024-01-30T19:37:04;3.66;89.86
71117;SHT31;58775;46.992;9.518;2024-01-30T19:39:05;3.63;90.09
71117;SHT31;58775;46.992;9.518;2024-01-30T19:41:12;3.69;90.19
71117;SHT31;58775;46.992;9.518;2024-01-30T19:43:14;3.63;90.16
71117;SHT31;58775;46.992;9.518;2024-01-30T19:45:14;3.66;89.40
71117;SHT31;58775;46.992;9.518;2024-01-30T19:47:15;3.66;88.93
71117;SHT31;58775;46.992;9.518;2024-01-30T19:49:18;3.65;89.14
71117;SHT31;58775;46.992;9.518;2024-01-30T19:51:19;3.70;88.91
71117;SHT31;58775;46.992;9.518;2024-01-30T19:53:20;3.79;88.79
71117;SHT31;58775;46.992;9.518;2024-01-30T19:55:21;3.72;89.74
71117;SHT31;58775;46.992;9.518;2024-01-30T19:57:22;3.70;89.53
71117;SHT31;58775;46.992;9.518;2024-01-30T19:59:22;3.66;89.23
71117;SHT31;58775;46.992;9.518;2024-01-30T20:01:23;3.66;89.15
71117;SHT31;58775;46.992;9.518;2024-01-30T20:03:24;3.66;88.89
71117;SHT31;58775;46.992;9.518;2024-01-30T20:05:25;3.66;88.83
71117;SHT31;58775;46.992;9.518;2024-01-30T20:07:26;3.60;88.79
71117;SHT31;58775;46.992;9.518;2024-01-30T20:09:27;3.52;88.88
71117;SHT31;58775;46.992;9.518;2024-01-30T20:11:28;3.34;90.00
71117;SHT31;58775;46.992;9.518;2024-01-30T20:13:29;3.35;90.49
71117;SHT31;58775;46.992;9.518;2024-01-30T20:15:30;3.48;90.30
71117;SHT31;58775;46.992;9.518;2024-01-30T20:17:31;3.58;91.26
71117;SHT31;58775;46.992;9.518;2024-01-30T20:19:34;3.60;89.85
71117;SHT31;58775;46.992;9.518;2024-01-30T20:21:36;3.65;89.40
71117;SHT31;58775;46.992;9.518;2024-01-30T20:23:37;3.73;88.93
71117;SHT31;58775;46.992;9.518;2024-01-30T20:25:39;3.78;88.78
71117;SHT31;58775;46.992;9.518;2024-01-30T20:27:39;3.79;88.39
71117;SHT31;58775;46.992;9.518;2024-01-30T20:29:40;3.79;88.38
71117;SHT31;58775;46.992;9.518;2024-01-30T20:31:41;3.76;88.26
71117;SHT31;58775;46.992;9.518;2024-01-30T20:33:42;3.78;88.52
71117;SHT31;58775;46.992;9.518;2024-01-30T20:35:43;3.76;88.55
71117;SHT31;58775;46.992;9.518;2024-01-30T20:37:44;3.76;88.58
71117;SHT31;58775;46.992;9.518;2024-01-30T20:39:46;3.78;88.54
71117;SHT31;58775;46.992;9.518;2024-01-30T20:41:47;3.75;88.42
71117;SHT31;58775;46.992;9.518;2024-01-30T20:43:49;3.72;88.98
71117;SHT31;58775;46.992;9.518;2024-01-30T20:45:50;3.69;88.80
71117;SHT31;58775;46.992;9.518;2024-01-30T20:47:51;3.68;88.88
71117;SHT31;58775;46.992;9.518;2024-01-30T20:49:52;3.63;89.87
71117;SHT31;58775;46.992;9.518;2024-01-30T20:51:53;3.58;88.84
71117;SHT31;58775;46.992;9.518;2024-01-30T20:53:55;3.62;88.09
71117;SHT31;58775;46.992;9.518;2024-01-30T20:55:56;3.46;88.61
71117;SHT31;58775;46.992;9.518;2024-01-30T20:57:57;3.52;88.77
71117;SHT31;58775;46.992;9.518;2024-01-30T20:59:58;3.55;89.10
71117;SHT31;58775;46.992;9.518;2024-01-30T21:01:58;3.51;89.67
71117;SHT31;58775;46.992;9.518;2024-01-30T21:03:59;3.56;89.73
71117;SHT31;58775;46.992;9.518;2024-01-30T21:06:00;3.59;89.44
71117;SHT31;58775;46.992;9.518;2024-01-30T21:08:01;3.59;89.64
71117;SHT31;58775;46.992;9.518;2024-01-30T21:10:01;3.56;89.69
71117;SHT31;58775;46.992;9.518;2024-01-30T21:12:03;3.58;89.78
71117;SHT31;58775;46.992;9.518;2024-01-30T21:14:05;3.59;89.51
71117;SHT31;58775;46.992;9.518;2024-01-30T21:16:06;3.56;89.71
71117;SHT31;58775;46.992;9.518;2024-01-30T21:18:06;3.56;89.73
71117;SHT31;58775;46.992;9.518;2024-01-30T21:20:09;3.49;90.15
71117;SHT31;58775;46.992;9.518;2024-01-30T21:22:10;3.55;89.89
71117;SHT31;58775;46.992;9.518;2024-01-30T21:24:11;3.51;89.79
71117;SHT31;58775;46.992;9.518;2024-01-30T21:26:12;3.48;90.41
71117;SHT31;58775;46.992;9.518;2024-01-30T21:28:14;3.52;90.26
71117;SHT31;58775;46.992;9.518;2024-01-30T21:30:17;3.48;90.33
71117;SHT31;58775;46.992;9.518;2024-01-30T21:32:18;3.40;90.33
71117;SHT31;58775;46.992;9.518;2024-01-30T21:34:19;3.42;90.80
71117;SHT31;58775;46.992;9.518;2024-01-30T21:36:20;3.48;90.34
71117;SHT31;58775;46.992;9.518;2024-01-30T21:38:21;3.49;90.59
71117;SHT31;58775;46.992;9.518;2024-01-30T21:40:22;3.58;90.49
71117;SHT31;58775;46.992;9.518;2024-01-30T21:42:23;3.58;90.49
71117;SHT31;58775;46.992;9.518;2024-01-30T21:44:24;3.60;89.77
71117;SHT31;58775;46.992;9.518;2024-01-30T21:46:26;3.59;90.05
71117;SHT31;58775;46.992;9.518;2024-01-30T21:48:27;3.62;89.74
71117;SHT31;58775;46.992;9.518;2024-01-30T21:50:28;3.68;89.84
71117;SHT31;58775;46.992;9.518;2024-01-30T21:52:28;3.63;89.62
71117;SHT31;58775;46.992;9.518;2024-01-30T21:54:29;3.62;90.21
71117;SHT31;58775;46.992;9.518;2024-01-30T21:56:30;3.59;89.93
71117;SHT31;58775;46.992;9.518;2024-01-30T21:58:31;3.65;89.05
71117;SHT31;58775;46.992;9.518;2024-01-30T22:00:32;3.60;89.43
71117;SHT31;58775;46.992;9.518;2024-01-30T22:02:33;3.58;89.93
71117;SHT31;58775;46.992;9.518;2024-01-30T22:04:34;3.60;89.71
71117;SHT31;58775;46.992;9.518;2024-01-30T22:06:34;3.60;89.65
71117;SHT31;58775;46.992;9.518;2024-01-30T22:08:35;3.66;89.58
71117;SHT31;58775;46.992;9.518;2024-01-30T22:10:36;3.63;89.36
71117;SHT31;58775;46.992;9.518;2024-01-30T22:12:37;3.63;89.25
71117;SHT31;58775;46.992;9.518;2024-01-30T22:14:39;3.56;89.33
71117;SHT31;58775;46.992;9.518;2024-01-30T22:16:39;3.51;88.84
71117;SHT31;58775;46.992;9.518;2024-01-30T22:18:41;3.54;89.18
71117;SHT31;58775;46.992;9.518;2024-01-30T22:20:42;3.54;88.77
71117;SHT31;58775;46.992;9.518;2024-01-30T22:22:42;3.34;89.69
71117;SHT31;58775;46.992;9.518;2024-01-30T22:24:43;3.36;89.61
71117;SHT31;58775;46.992;9.518;2024-01-30T22:26:44;3.38;89.50
71117;SHT31;58775;46.992;9.518;2024-01-30T22:28:45;3.36;89.39
71117;SHT31;58775;46.992;9.518;2024-01-30T22:30:46;3.27;89.56
71117;SHT31;58775;46.992;9.518;2024-01-30T22:32:46;3.29;89.42
71117;SHT31;58775;46.992;9.518;2024-01-30T22:34:47;3.27;89.34
71117;SHT31;58775;46.992;9.518;2024-01-30T22:36:48;3.09;90.12
71117;SHT31;58775;46.992;9.518;2024-01-30T22:38:49;3.03;90.54
71117;SHT31;58775;46.992;9.518;2024-01-30T22:40:50;3.04;90.20
71117;SHT31;58775;46.992;9.518;2024-01-30T22:42:50;3.04;90.17
71117;SHT31;58775;46.992;9.518;2024-01-30T22:44:51;3.00;89.82
71117;SHT31;58775;46.992;9.518;2024-01-30T22:46:52;2.96;90.43
71117;SHT31;58775;46.992;9.518;2024-01-30T22:48:53;2.97;90.45
71117;SHT31;58775;46.992;9.518;2024-01-30T22:50:54;2.90;90.48
71117;SHT31;58775;46.992;9.518;2024-01-30T22:52:55;2.83;90.34
71117;SHT31;58775;46.992;9.518;2024-01-30T22:54:55;2.79;90.63
71117;SHT31;58775;46.992;9.518;2024-01-30T22:56:57;2.76;90.44
71117;SHT31;58775;46.992;9.518;2024-01-30T22:58:58;2.73;90.49
71117;SHT31;58775;46.992;9.518;2024-01-30T23:00:59;2.73;90.62
71117;SHT31;58775;46.992;9.518;2024-01-30T23:03:00;2.64;89.87
71117;SHT31;58775;46.992;9.518;2024-01-30T23:05:00;2.70;90.15
71117;SHT31;58775;46.992;9.518;2024-01-30T23:07:01;2.57;90.93
71117;SHT31;58775;46.992;9.518;2024-01-30T23:09:02;2.56;90.04
71117;SHT31;58775;46.992;9.518;2024-01-30T23:11:03;2.54;90.51
71117;SHT31;58775;46.992;9.518;2024-01-30T23:13:04;2.52;90.56
71117;SHT31;58775;46.992;9.518;2024-01-30T23:15:05;2.37;91.32
71117;SHT31;58775;46.992;9.518;2024-01-30T23:17:09;2.36;90.95
71117;SHT31;58775;46.992;9.518;2024-01-30T23:19:10;2.23;91.45
71117;SHT31;58775;46.992;9.518;2024-01-30T23:21:11;2.08;92.87
71117;SHT31;58775;46.992;9.518;2024-01-30T23:23:12;2.05;92.42
71117;SHT31;58775;46.992;9.518;2024-01-30T23:25:13;2.12;92.19
71117;SHT31;58775;46.992;9.518;2024-01-30T23:27:14;2.13;91.70
71117;SHT31;58775;46.992;9.518;2024-01-30T23:29:14;2.06;91.28
71117;SHT31;58775;46.992;9.518;2024-01-30T23:31:15;1.94;93.06
71117;SHT31;58775;46.992;9.518;2024-01-30T23:33:16;1.89;92.86
71117;SHT31;58775;46.992;9.518;2024-01-30T23:35:17;2.01;92.51
71117;SHT31;58775;46.992;9.518;2024-01-30T23:37:18;2.04;91.99
71117;SHT31;58775;46.992;9.518;2024-01-30T23:39:20;2.06;91.99
71117;SHT31;58775;46.992;9.518;2024-01-30T23:41:20;2.12;91.23
71117;SHT31;58775;46.992;9.518;2024-01-30T23:43:21;1.98;91.81
71117;SHT31;58775;46.992;9.518;2024-01-30T23:45:22;2.05;91.62
71117;SHT31;58775;46.992;9.518;2024-01-30T23:47:23;2.06;91.12
71117;SHT31;58775;46.992;9.518;2024-01-30T23:49:24;2.05;91.58
71117;SHT31;58775;46.992;9.518;2024-01-30T23:51:24;2.11;91.97
71117;SHT31;58775;46.992;9.518;2024-01-30T23:53:25;2.08;91.05
71117;SHT31;58775;46.992;9.518;2024-01-30T23:55:26;2.06;91.46
71117;SHT31;58775;46.992;9.518;2024-01-30T23:57:27;2.11;91.45
71117;SHT31;58775;46.992;9.518;2024-01-30T23:59:28;2.04;91.75
